sensor_id;sensor_type;location;lat;lon;timestamp;temperature;humidity
13440;DHT22;6792;57.698;11.946;2022-09-09T00:00:54;20.30;42.00
13440;DHT22;6792;57.698;11.946;2022-09-09T00:03:26;20.20;42.00
13440;DHT22;6792;57.698;11.946;2022-09-09T00:06:01;20.20;42.10
13440;DHT22;6792;57.698;11.946;2022-09-09T00:08:35;20.10;42.10
13440;DHT22;6792;57.698;11.946;2022-09-09T00:11:04;20.10;42.20
13440;DHT22;6792;57.698;11.946;2022-09-09T00:13:38;20.10;42.30
13440;DHT22;6792;57.698;11.946;2022-09-09T00:16:10;20.10;42.40
13440;DHT22;6792;57.698;11.946;2022-09-09T00:21:19;20.00;41.80
13440;DHT22;6792;57.698;11.946;2022-09-09T00:23:53;20.00;42.50
13440;DHT22;6792;57.698;11.946;2022-09-09T00:26:26;19.90;42.50
13440;DHT22;6792;57.698;11.946;2022-09-09T00:28:59;19.90;42.00
13440;DHT22;6792;57.698;11.946;2022-09-09T00:31:30;19.90;42.60
13440;DHT22;6792;57.698;11.946;2022-09-09T00:34:03;19.80;42.60
13440;DHT22;6792;57.698;11.946;2022-09-09T00:36:33;19.90;42.70
13440;DHT22;6792;57.698;11.946;2022-09-09T00:39:04;19.90;42.70
13440;DHT22;6792;57.698;11.946;2022-09-09T00:41:40;19.90;42.70
13440;DHT22;6792;57.698;11.946;2022-09-09T00:44:17;19.90;42.70
13440;DHT22;6792;57.698;11.946;2022-09-09T00:46:55;19.80;42.70
13440;DHT22;6792;57.698;11.946;2022-09-09T00:49:32;19.80;42.70
13440;DHT22;6792;57.698;11.946;2022-09-09T00:52:06;19.80;42.70
13440;DHT22;6792;57.698;11.946;2022-09-09T00:54:44;19.80;42.80
13440;DHT22;6792;57.698;11.946;2022-09-09T00:57:22;19.80;42.90
13440;DHT22;6792;57.698;11.946;2022-09-09T00:59:55;19.80;42.80
13440;DHT22;6792;57.698;11.946;2022-09-09T01:02:28;19.80;42.80
13440;DHT22;6792;57.698;11.946;2022-09-09T01:05:06;19.70;42.80
13440;DHT22;6792;57.698;11.946;2022-09-09T01:07:32;19.80;42.90
13440;DHT22;6792;57.698;11.946;2022-09-09T01:10:05;19.70;42.90
13440;DHT22;6792;57.698;11.946;2022-09-09T01:12:38;19.70;42.90
13440;DHT22;6792;57.698;11.946;2022-09-09T01:15:14;19.60;43.00
13440;DHT22;6792;57.698;11.946;2022-09-09T01:17:52;19.70;43.00
13440;DHT22;6792;57.698;11.946;2022-09-09T01:20:23;19.60;43.00
13440;DHT22;6792;57.698;11.946;2022-09-09T01:23:13;19.60;43.10
13440;DHT22;6792;57.698;11.946;2022-09-09T01:26:10;19.60;43.10
13440;DHT22;6792;57.698;11.946;2022-09-09T01:28:42;19.50;43.80
13440;DHT22;6792;57.698;11.946;2022-09-09T01:31:15;19.50;43.30
13440;DHT22;6792;57.698;11.946;2022-09-09T01:33:45;19.50;43.20
13440;DHT22;6792;57.698;11.946;2022-09-09T01:36:17;19.50;43.20
13440;DHT22;6792;57.698;11.946;2022-09-09T01:38:47;19.60;43.20
13440;DHT22;6792;57.698;11.946;2022-09-09T01:41:16;19.60;43.20
13440;DHT22;6792;57.698;11.946;2022-09-09T01:43:45;19.60;43.30
13440;DHT22;6792;57.698;11.946;2022-09-09T01:46:14;19.60;43.10
13440;DHT22;6792;57.698;11.946;2022-09-09T01:48:44;19.60;43.20
13440;DHT22;6792;57.698;11.946;2022-09-09T01:51:28;19.60;43.30
13440;DHT22;6792;57.698;11.946;2022-09-09T01:53:59;19.50;42.80
13440;DHT22;6792;57.698;11.946;2022-09-09T01:56:35;19.50;43.30
13440;DHT22;6792;57.698;11.946;2022-09-09T01:59:14;19.50;43.40
13440;DHT22;6792;57.698;11.946;2022-09-09T02:01:51;19.60;43.40
13440;DHT22;6792;57.698;11.946;2022-09-09T02:04:27;19.60;43.50
13440;DHT22;6792;57.698;11.946;2022-09-09T02:06:57;19.50;42.90
13440;DHT22;6792;57.698;11.946;2022-09-09T02:09:28;19.50;42.90
13440;DHT22;6792;57.698;11.946;2022-09-09T02:12:00;19.50;42.90
13440;DHT22;6792;57.698;11.946;2022-09-09T02:14:33;19.50;43.40
13440;DHT22;6792;57.698;11.946;2022-09-09T02:17:06;19.50;43.50
13440;DHT22;6792;57.698;11.946;2022-09-09T02:19:37;19.50;43.50
13440;DHT22;6792;57.698;11.946;2022-09-09T02:22:06;19.50;43.60
13440;DHT22;6792;57.698;11.946;2022-09-09T02:24:37;19.50;43.70
13440;DHT22;6792;57.698;11.946;2022-09-09T02:27:09;19.50;43.70
13440;DHT22;6792;57.698;11.946;2022-09-09T02:29:40;19.50;43.70
13440;DHT22;6792;57.698;11.946;2022-09-09T02:32:11;19.50;43.70
13440;DHT22;6792;57.698;11.946;2022-09-09T02:34:43;19.50;43.80
13440;DHT22;6792;57.698;11.946;2022-09-09T02:37:14;19.50;43.80
13440;DHT22;6792;57.698;11.946;2022-09-09T02:39:44;19.50;43.80
13440;DHT22;6792;57.698;11.946;2022-09-09T02:42:13;19.50;43.80
13440;DHT22;6792;57.698;11.946;2022-09-09T02:44:43;19.50;43.80
13440;DHT22;6792;57.698;11.946;2022-09-09T02:47:27;19.50;43.80
13440;DHT22;6792;57.698;11.946;2022-09-09T02:50:05;19.50;43.30
13440;DHT22;6792;57.698;11.946;2022-09-09T02:52:38;19.50;43.90
13440;DHT22;6792;57.698;11.946;2022-09-09T02:55:12;19.50;43.90
13440;DHT22;6792;57.698;11.946;2022-09-09T02:57:41;19.50;43.80
13440;DHT22;6792;57.698;11.946;2022-09-09T03:00:13;19.50;43.90
13440;DHT22;6792;57.698;11.946;2022-09-09T03:02:42;19.50;44.00
13440;DHT22;6792;57.698;11.946;2022-09-09T03:05:13;19.50;43.90
13440;DHT22;6792;57.698;11.946;2022-09-09T03:07:41;19.60;43.90
13440;DHT22;6792;57.698;11.946;2022-09-09T03:10:10;19.60;43.90
13440;DHT22;6792;57.698;11.946;2022-09-09T03:12:39;19.60;44.00
13440;DHT22;6792;57.698;11.946;2022-09-09T03:15:09;19.60;43.90
13440;DHT22;6792;57.698;11.946;2022-09-09T03:17:39;19.60;44.00
13440;DHT22;6792;57.698;11.946;2022-09-09T03:20:09;19.50;43.90
13440;DHT22;6792;57.698;11.946;2022-09-09T03:22:38;19.50;44.00
13440;DHT22;6792;57.698;11.946;2022-09-09T03:25:08;19.50;44.30
13440;DHT22;6792;57.698;11.946;2022-09-09T03:27:37;19.50;44.00
13440;DHT22;6792;57.698;11.946;2022-09-09T03:30:08;19.60;44.10
13440;DHT22;6792;57.698;11.946;2022-09-09T03:32:37;19.60;44.10
13440;DHT22;6792;57.698;11.946;2022-09-09T03:35:08;19.50;44.00
13440;DHT22;6792;57.698;11.946;2022-09-09T03:37:37;19.50;44.10
13440;DHT22;6792;57.698;11.946;2022-09-09T03:40:08;19.50;44.10
13440;DHT22;6792;57.698;11.946;2022-09-09T03:42:37;19.50;44.10
13440;DHT22;6792;57.698;11.946;2022-09-09T03:45:09;19.50;44.10
13440;DHT22;6792;57.698;11.946;2022-09-09T03:47:38;19.50;44.10
13440;DHT22;6792;57.698;11.946;2022-09-09T03:50:09;19.50;44.20
13440;DHT22;6792;57.698;11.946;2022-09-09T03:52:39;19.50;44.20
13440;DHT22;6792;57.698;11.946;2022-09-09T03:55:09;19.50;44.30
13440;DHT22;6792;57.698;11.946;2022-09-09T03:57:38;19.50;44.30
13440;DHT22;6792;57.698;11.946;2022-09-09T04:00:09;19.50;44.30
13440;DHT22;6792;57.698;11.946;2022-09-09T04:02:37;19.50;44.30
13440;DHT22;6792;57.698;11.946;2022-09-09T04:05:08;19.50;44.30
13440;DHT22;6792;57.698;11.946;2022-09-09T04:07:37;19.50;44.30
13440;DHT22;6792;57.698;11.946;2022-09-09T04:10:08;19.50;44.40
13440;DHT22;6792;57.698;11.946;2022-09-09T04:12:37;19.60;44.40
13440;DHT22;6792;57.698;11.946;2022-09-09T04:15:07;19.50;44.40
13440;DHT22;6792;57.698;11.946;2022-09-09T04:17:36;19.60;44.40
13440;DHT22;6792;57.698;11.946;2022-09-09T04:20:06;19.50;44.40
13440;DHT22;6792;57.698;11.946;2022-09-09T04:22:37;19.50;44.50
13440;DHT22;6792;57.698;11.946;2022-09-09T04:25:08;19.50;44.50
13440;DHT22;6792;57.698;11.946;2022-09-09T04:27:36;19.50;44.60
13440;DHT22;6792;57.698;11.946;2022-09-09T04:30:07;19.50;44.60
13440;DHT22;6792;57.698;11.946;2022-09-09T04:32:36;19.50;44.70
13440;DHT22;6792;57.698;11.946;2022-09-09T04:35:06;19.40;44.70
13440;DHT22;6792;57.698;11.946;2022-09-09T04:37:34;19.40;44.70
13440;DHT22;6792;57.698;11.946;2022-09-09T04:40:04;19.50;44.80
13440;DHT22;6792;57.698;11.946;2022-09-09T04:42:36;19.50;44.80
13440;DHT22;6792;57.698;11.946;2022-09-09T04:45:07;19.50;44.80
13440;DHT22;6792;57.698;11.946;2022-09-09T04:47:38;19.50;44.90
13440;DHT22;6792;57.698;11.946;2022-09-09T04:50:08;19.50;44.90
13440;DHT22;6792;57.698;11.946;2022-09-09T04:52:37;19.50;44.90
13440;DHT22;6792;57.698;11.946;2022-09-09T04:55:08;19.60;44.90
13440;DHT22;6792;57.698;11.946;2022-09-09T04:57:37;19.50;44.80
13440;DHT22;6792;57.698;11.946;2022-09-09T05:00:08;19.50;44.90
13440;DHT22;6792;57.698;11.946;2022-09-09T05:02:38;19.60;45.00
13440;DHT22;6792;57.698;11.946;2022-09-09T05:05:08;19.60;45.00
13440;DHT22;6792;57.698;11.946;2022-09-09T05:07:38;19.60;45.60
13440;DHT22;6792;57.698;11.946;2022-09-09T05:10:08;19.60;45.10
13440;DHT22;6792;57.698;11.946;2022-09-09T05:12:38;19.60;45.10
13440;DHT22;6792;57.698;11.946;2022-09-09T05:15:09;19.50;45.10
13440;DHT22;6792;57.698;11.946;2022-09-09T05:17:39;19.60;45.20
13440;DHT22;6792;57.698;11.946;2022-09-09T05:20:09;19.60;45.20
13440;DHT22;6792;57.698;11.946;2022-09-09T05:22:39;19.60;45.20
13440;DHT22;6792;57.698;11.946;2022-09-09T05:25:09;19.60;44.70
13440;DHT22;6792;57.698;11.946;2022-09-09T05:27:38;19.70;45.40
13440;DHT22;6792;57.698;11.946;2022-09-09T05:30:09;19.70;45.20
13440;DHT22;6792;57.698;11.946;2022-09-09T05:32:38;19.70;45.10
13440;DHT22;6792;57.698;11.946;2022-09-09T05:35:09;19.70;45.20
13440;DHT22;6792;57.698;11.946;2022-09-09T05:37:38;19.70;45.10
13440;DHT22;6792;57.698;11.946;2022-09-09T05:40:08;19.80;45.20
13440;DHT22;6792;57.698;11.946;2022-09-09T05:42:38;19.80;45.20
13440;DHT22;6792;57.698;11.946;2022-09-09T05:45:09;19.80;45.20
13440;DHT22;6792;57.698;11.946;2022-09-09T05:47:38;19.80;45.20
13440;DHT22;6792;57.698;11.946;2022-09-09T05:50:08;19.90;45.20
13440;DHT22;6792;57.698;11.946;2022-09-09T05:52:37;19.90;45.10
13440;DHT22;6792;57.698;11.946;2022-09-09T05:55:11;19.90;45.10
13440;DHT22;6792;57.698;11.946;2022-09-09T05:57:39;19.90;45.10
13440;DHT22;6792;57.698;11.946;2022-09-09T06:00:12;19.90;45.20
13440;DHT22;6792;57.698;11.946;2022-09-09T06:02:42;19.90;45.20
13440;DHT22;6792;57.698;11.946;2022-09-09T06:05:11;19.90;45.20
13440;DHT22;6792;57.698;11.946;2022-09-09T06:07:40;20.00;45.30
13440;DHT22;6792;57.698;11.946;2022-09-09T06:10:11;20.00;45.30
13440;DHT22;6792;57.698;11.946;2022-09-09T06:12:40;20.00;45.30
13440;DHT22;6792;57.698;11.946;2022-09-09T06:15:10;20.00;45.20
13440;DHT22;6792;57.698;11.946;2022-09-09T06:17:39;20.10;45.30
13440;DHT22;6792;57.698;11.946;2022-09-09T06:20:09;20.10;45.30
13440;DHT22;6792;57.698;11.946;2022-09-09T06:22:43;20.10;44.80
13440;DHT22;6792;57.698;11.946;2022-09-09T06:25:14;20.10;45.30
13440;DHT22;6792;57.698;11.946;2022-09-09T06:27:43;20.20;45.90
13440;DHT22;6792;57.698;11.946;2022-09-09T06:30:14;20.20;45.30
13440;DHT22;6792;57.698;11.946;2022-09-09T06:32:44;20.20;45.30
13440;DHT22;6792;57.698;11.946;2022-09-09T06:35:13;20.20;45.30
13440;DHT22;6792;57.698;11.946;2022-09-09T06:37:46;20.20;45.30
13440;DHT22;6792;57.698;11.946;2022-09-09T06:40:16;20.20;45.30
13440;DHT22;6792;57.698;11.946;2022-09-09T06:42:45;20.20;45.40
13440;DHT22;6792;57.698;11.946;2022-09-09T06:45:15;20.20;45.40
13440;DHT22;6792;57.698;11.946;2022-09-09T06:47:45;20.20;45.40
13440;DHT22;6792;57.698;11.946;2022-09-09T06:50:14;20.30;45.40
13440;DHT22;6792;57.698;11.946;2022-09-09T06:52:46;20.30;45.40
13440;DHT22;6792;57.698;11.946;2022-09-09T06:55:16;20.30;45.40
13440;DHT22;6792;57.698;11.946;2022-09-09T06:57:47;20.30;45.40
13440;DHT22;6792;57.698;11.946;2022-09-09T07:00:17;20.40;46.10
13440;DHT22;6792;57.698;11.946;2022-09-09T07:02:46;20.40;45.40
13440;DHT22;6792;57.698;11.946;2022-09-09T07:05:15;20.40;45.40
13440;DHT22;6792;57.698;11.946;2022-09-09T07:07:44;20.40;45.50
13440;DHT22;6792;57.698;11.946;2022-09-09T07:10:14;20.40;45.50
13440;DHT22;6792;57.698;11.946;2022-09-09T07:12:43;20.50;45.60
13440;DHT22;6792;57.698;11.946;2022-09-09T07:15:11;20.50;45.60
13440;DHT22;6792;57.698;11.946;2022-09-09T07:17:41;20.50;45.60
13440;DHT22;6792;57.698;11.946;2022-09-09T07:20:11;20.50;45.60
13440;DHT22;6792;57.698;11.946;2022-09-09T07:22:40;20.40;45.60
13440;DHT22;6792;57.698;11.946;2022-09-09T07:25:09;20.50;45.70
13440;DHT22;6792;57.698;11.946;2022-09-09T07:27:38;20.50;45.80
13440;DHT22;6792;57.698;11.946;2022-09-09T07:30:10;20.50;45.70
13440;DHT22;6792;57.698;11.946;2022-09-09T07:32:39;20.50;45.90
13440;DHT22;6792;57.698;11.946;2022-09-09T07:35:09;20.60;45.80
13440;DHT22;6792;57.698;11.946;2022-09-09T07:37:37;20.60;45.80
13440;DHT22;6792;57.698;11.946;2022-09-09T07:40:08;20.60;45.80
13440;DHT22;6792;57.698;11.946;2022-09-09T07:42:37;20.60;45.80
13440;DHT22;6792;57.698;11.946;2022-09-09T07:45:07;20.60;45.80
13440;DHT22;6792;57.698;11.946;2022-09-09T07:47:36;20.70;45.90
13440;DHT22;6792;57.698;11.946;2022-09-09T07:50:06;20.70;45.80
13440;DHT22;6792;57.698;11.946;2022-09-09T07:52:37;20.70;45.30
13440;DHT22;6792;57.698;11.946;2022-09-09T07:55:06;20.80;45.80
13440;DHT22;6792;57.698;11.946;2022-09-09T07:57:36;20.80;45.80
13440;DHT22;6792;57.698;11.946;2022-09-09T08:00:08;20.80;45.80
13440;DHT22;6792;57.698;11.946;2022-09-09T08:02:38;20.80;45.80
13440;DHT22;6792;57.698;11.946;2022-09-09T08:05:07;20.80;45.80
13440;DHT22;6792;57.698;11.946;2022-09-09T08:07:37;20.80;45.80
13440;DHT22;6792;57.698;11.946;2022-09-09T08:10:07;20.90;45.90
13440;DHT22;6792;57.698;11.946;2022-09-09T08:12:36;20.90;45.80
13440;DHT22;6792;57.698;11.946;2022-09-09T08:15:06;20.90;45.80
13440;DHT22;6792;57.698;11.946;2022-09-09T08:17:35;20.90;45.80
13440;DHT22;6792;57.698;11.946;2022-09-09T08:20:06;21.00;45.90
13440;DHT22;6792;57.698;11.946;2022-09-09T08:22:35;21.00;45.90
13440;DHT22;6792;57.698;11.946;2022-09-09T08:25:06;21.10;46.30
13440;DHT22;6792;57.698;11.946;2022-09-09T08:27:37;21.10;45.80
13440;DHT22;6792;57.698;11.946;2022-09-09T08:30:08;21.10;45.90
13440;DHT22;6792;57.698;11.946;2022-09-09T08:32:38;21.20;45.90
13440;DHT22;6792;57.698;11.946;2022-09-09T08:35:08;21.20;45.80
13440;DHT22;6792;57.698;11.946;2022-09-09T08:37:37;21.20;45.90
13440;DHT22;6792;57.698;11.946;2022-09-09T08:40:09;21.30;45.90
13440;DHT22;6792;57.698;11.946;2022-09-09T08:42:41;21.30;45.90
13440;DHT22;6792;57.698;11.946;2022-09-09T08:45:25;21.40;46.00
13440;DHT22;6792;57.698;11.946;2022-09-09T08:48:05;21.40;46.10
13440;DHT22;6792;57.698;11.946;2022-09-09T08:50:36;21.40;46.10
13440;DHT22;6792;57.698;11.946;2022-09-09T08:53:11;21.40;46.10
13440;DHT22;6792;57.698;11.946;2022-09-09T08:55:43;21.30;45.50
13440;DHT22;6792;57.698;11.946;2022-09-09T08:58:16;21.40;46.00
13440;DHT22;6792;57.698;11.946;2022-09-09T09:01:00;21.40;46.00
13440;DHT22;6792;57.698;11.946;2022-09-09T09:03:35;21.40;46.00
13440;DHT22;6792;57.698;11.946;2022-09-09T09:06:10;21.40;46.00
13440;DHT22;6792;57.698;11.946;2022-09-09T09:08:43;21.40;46.00
13440;DHT22;6792;57.698;11.946;2022-09-09T09:11:13;21.50;46.00
13440;DHT22;6792;57.698;11.946;2022-09-09T09:13:44;21.50;46.00
13440;DHT22;6792;57.698;11.946;2022-09-09T09:16:19;21.50;46.00
13440;DHT22;6792;57.698;11.946;2022-09-09T09:18:49;21.50;46.00
13440;DHT22;6792;57.698;11.946;2022-09-09T09:21:24;21.50;46.10
13440;DHT22;6792;57.698;11.946;2022-09-09T09:23:55;21.60;45.70
13440;DHT22;6792;57.698;11.946;2022-09-09T09:26:29;21.60;46.20
13440;DHT22;6792;57.698;11.946;2022-09-09T09:28:57;21.60;46.20
13440;DHT22;6792;57.698;11.946;2022-09-09T09:31:26;21.70;46.10
13440;DHT22;6792;57.698;11.946;2022-09-09T09:33:56;21.70;46.00
13440;DHT22;6792;57.698;11.946;2022-09-09T09:36:34;21.80;46.00
13440;DHT22;6792;57.698;11.946;2022-09-09T09:39:04;21.80;45.90
13440;DHT22;6792;57.698;11.946;2022-09-09T09:41:36;21.80;45.90
13440;DHT22;6792;57.698;11.946;2022-09-09T09:44:19;21.80;45.80
13440;DHT22;6792;57.698;11.946;2022-09-09T09:46:48;21.90;45.90
13440;DHT22;6792;57.698;11.946;2022-09-09T09:49:17;21.90;45.80
13440;DHT22;6792;57.698;11.946;2022-09-09T09:51:47;21.90;45.80
13440;DHT22;6792;57.698;11.946;2022-09-09T09:54:21;21.90;45.20
13440;DHT22;6792;57.698;11.946;2022-09-09T09:56:50;21.90;45.80
13440;DHT22;6792;57.698;11.946;2022-09-09T09:59:32;22.00;45.80
13440;DHT22;6792;57.698;11.946;2022-09-09T10:01:54;22.00;45.90
13440;DHT22;6792;57.698;11.946;2022-09-09T10:04:24;22.10;45.90
13440;DHT22;6792;57.698;11.946;2022-09-09T10:06:52;22.20;46.00
13440;DHT22;6792;57.698;11.946;2022-09-09T10:09:25;22.20;46.00
13440;DHT22;6792;57.698;11.946;2022-09-09T10:12:00;22.20;45.90
13440;DHT22;6792;57.698;11.946;2022-09-09T10:14:34;22.30;45.90
13440;DHT22;6792;57.698;11.946;2022-09-09T10:17:12;22.30;46.00
13440;DHT22;6792;57.698;11.946;2022-09-09T10:19:43;22.20;46.00
13440;DHT22;6792;57.698;11.946;2022-09-09T10:22:19;22.20;46.80
13440;DHT22;6792;57.698;11.946;2022-09-09T10:28:08;22.20;45.90
13440;DHT22;6792;57.698;11.946;2022-09-09T10:30:38;22.20;46.40
13440;DHT22;6792;57.698;11.946;2022-09-09T10:33:09;22.20;46.60
13440;DHT22;6792;57.698;11.946;2022-09-09T10:35:43;22.20;46.10
13440;DHT22;6792;57.698;11.946;2022-09-09T10:38:16;22.10;46.30
13440;DHT22;6792;57.698;11.946;2022-09-09T10:41:03;22.10;46.90
13440;DHT22;6792;57.698;11.946;2022-09-09T10:49:30;22.00;46.90
13440;DHT22;6792;57.698;11.946;2022-09-09T10:52:03;22.00;47.40
13440;DHT22;6792;57.698;11.946;2022-09-09T10:54:39;22.00;47.50
13440;DHT22;6792;57.698;11.946;2022-09-09T10:57:11;22.00;47.60
13440;DHT22;6792;57.698;11.946;2022-09-09T10:59:44;22.00;47.70
13440;DHT22;6792;57.698;11.946;2022-09-09T11:02:16;22.00;47.80
13440;DHT22;6792;57.698;11.946;2022-09-09T11:04:49;22.00;48.00
13440;DHT22;6792;57.698;11.946;2022-09-09T11:07:25;22.00;48.10
13440;DHT22;6792;57.698;11.946;2022-09-09T11:09:56;22.00;48.20
13440;DHT22;6792;57.698;11.946;2022-09-09T11:12:25;21.90;47.80
13440;DHT22;6792;57.698;11.946;2022-09-09T11:14:59;22.00;48.50
13440;DHT22;6792;57.698;11.946;2022-09-09T11:17:31;22.00;48.60
13440;DHT22;6792;57.698;11.946;2022-09-09T11:20:01;21.90;48.70
13440;DHT22;6792;57.698;11.946;2022-09-09T11:22:33;21.90;48.80
13440;DHT22;6792;57.698;11.946;2022-09-09T11:25:05;21.90;48.90
13440;DHT22;6792;57.698;11.946;2022-09-09T11:27:37;21.90;49.10
13440;DHT22;6792;57.698;11.946;2022-09-09T11:30:18;21.90;49.10
13440;DHT22;6792;57.698;11.946;2022-09-09T11:33:15;21.90;49.80
13440;DHT22;6792;57.698;11.946;2022-09-09T11:36:00;21.80;48.90
13440;DHT22;6792;57.698;11.946;2022-09-09T11:38:32;21.80;49.50
13440;DHT22;6792;57.698;11.946;2022-09-09T11:41:03;21.70;49.10
13440;DHT22;6792;57.698;11.946;2022-09-09T11:43:39;21.80;49.80
13440;DHT22;6792;57.698;11.946;2022-09-09T11:46:09;21.80;49.80
13440;DHT22;6792;57.698;11.946;2022-09-09T11:48:40;21.80;49.80
13440;DHT22;6792;57.698;11.946;2022-09-09T11:51:13;21.80;49.80
13440;DHT22;6792;57.698;11.946;2022-09-09T11:53:52;21.80;49.90
13440;DHT22;6792;57.698;11.946;2022-09-09T11:56:27;21.80;50.00
13440;DHT22;6792;57.698;11.946;2022-09-09T11:59:02;21.80;50.10
13440;DHT22;6792;57.698;11.946;2022-09-09T12:01:37;21.80;50.10
13440;DHT22;6792;57.698;11.946;2022-09-09T12:04:28;21.70;50.30
13440;DHT22;6792;57.698;11.946;2022-09-09T12:07:01;21.70;50.30
13440;DHT22;6792;57.698;11.946;2022-09-09T12:09:39;21.60;50.50
13440;DHT22;6792;57.698;11.946;2022-09-09T12:12:23;21.60;50.60
13440;DHT22;6792;57.698;11.946;2022-09-09T12:15:02;21.60;50.70
13440;DHT22;6792;57.698;11.946;2022-09-09T12:17:36;21.50;50.20
13440;DHT22;6792;57.698;11.946;2022-09-09T12:20:11;22.80;50.90
13440;DHT22;6792;57.698;11.946;2022-09-09T12:23:01;21.60;50.90
13440;DHT22;6792;57.698;11.946;2022-09-09T12:25:35;21.60;51.00
13440;DHT22;6792;57.698;11.946;2022-09-09T12:28:09;21.50;51.10
13440;DHT22;6792;57.698;11.946;2022-09-09T12:30:44;21.50;51.10
13440;DHT22;6792;57.698;11.946;2022-09-09T12:33:17;21.50;51.10
13440;DHT22;6792;57.698;11.946;2022-09-09T12:35:49;21.50;50.60
13440;DHT22;6792;57.698;11.946;2022-09-09T12:38:22;21.50;51.10
13440;DHT22;6792;57.698;11.946;2022-09-09T12:40:56;21.50;51.10
13440;DHT22;6792;57.698;11.946;2022-09-09T12:43:27;21.50;51.20
13440;DHT22;6792;57.698;11.946;2022-09-09T12:45:58;21.50;50.70
13440;DHT22;6792;57.698;11.946;2022-09-09T12:48:34;21.50;51.30
13440;DHT22;6792;57.698;11.946;2022-09-09T12:51:07;21.50;52.00
13440;DHT22;6792;57.698;11.946;2022-09-09T12:53:37;21.50;51.40
13440;DHT22;6792;57.698;11.946;2022-09-09T12:56:08;21.50;51.50
13440;DHT22;6792;57.698;11.946;2022-09-09T12:58:39;21.50;51.50
13440;DHT22;6792;57.698;11.946;2022-09-09T13:01:21;21.50;51.00
13440;DHT22;6792;57.698;11.946;2022-09-09T13:03:51;21.50;51.50
13440;DHT22;6792;57.698;11.946;2022-09-09T13:06:22;21.50;51.60
13440;DHT22;6792;57.698;11.946;2022-09-09T13:08:52;21.50;51.70
13440;DHT22;6792;57.698;11.946;2022-09-09T13:11:24;21.50;51.70
13440;DHT22;6792;57.698;11.946;2022-09-09T13:13:56;21.50;51.70
13440;DHT22;6792;57.698;11.946;2022-09-09T13:16:28;21.50;51.80
13440;DHT22;6792;57.698;11.946;2022-09-09T13:18:59;21.50;51.90
13440;DHT22;6792;57.698;11.946;2022-09-09T13:21:36;21.50;51.90
13440;DHT22;6792;57.698;11.946;2022-09-09T13:24:21;21.60;52.10
13440;DHT22;6792;57.698;11.946;2022-09-09T13:26:38;21.50;52.00
13440;DHT22;6792;57.698;11.946;2022-09-09T13:29:16;21.50;52.10
13440;DHT22;6792;57.698;11.946;2022-09-09T13:31:46;21.50;52.10
13440;DHT22;6792;57.698;11.946;2022-09-09T13:34:28;21.50;52.20
13440;DHT22;6792;57.698;11.946;2022-09-09T13:37:00;21.50;51.70
13440;DHT22;6792;57.698;11.946;2022-09-09T13:39:30;21.50;52.20
13440;DHT22;6792;57.698;11.946;2022-09-09T13:42:00;21.50;52.30
13440;DHT22;6792;57.698;11.946;2022-09-09T13:44:33;21.50;52.40
13440;DHT22;6792;57.698;11.946;2022-09-09T13:47:04;21.50;52.50
13440;DHT22;6792;57.698;11.946;2022-09-09T13:49:34;21.50;52.50
13440;DHT22;6792;57.698;11.946;2022-09-09T13:52:11;21.40;52.60
13440;DHT22;6792;57.698;11.946;2022-09-09T13:54:41;21.50;52.70
13440;DHT22;6792;57.698;11.946;2022-09-09T13:57:16;21.40;52.70
13440;DHT22;6792;57.698;11.946;2022-09-09T13:59:46;21.40;52.80
13440;DHT22;6792;57.698;11.946;2022-09-09T14:02:16;21.50;53.00
13440;DHT22;6792;57.698;11.946;2022-09-09T14:04:45;21.40;52.90
13440;DHT22;6792;57.698;11.946;2022-09-09T14:07:17;21.50;53.00
13440;DHT22;6792;57.698;11.946;2022-09-09T14:09:46;21.50;52.50
13440;DHT22;6792;57.698;11.946;2022-09-09T14:12:17;21.50;53.10
13440;DHT22;6792;57.698;11.946;2022-09-09T14:14:47;21.50;53.20
13440;DHT22;6792;57.698;11.946;2022-09-09T14:17:16;21.50;53.20
13440;DHT22;6792;57.698;11.946;2022-09-09T14:19:45;21.40;53.20
13440;DHT22;6792;57.698;11.946;2022-09-09T14:24:59;21.40;52.90
13440;DHT22;6792;57.698;11.946;2022-09-09T14:27:28;21.40;53.40
13440;DHT22;6792;57.698;11.946;2022-09-09T14:29:57;21.40;53.50
13440;DHT22;6792;57.698;11.946;2022-09-09T14:32:27;21.40;53.50
13440;DHT22;6792;57.698;11.946;2022-09-09T14:34:56;21.40;53.50
13440;DHT22;6792;57.698;11.946;2022-09-09T14:37:26;21.40;53.60
13440;DHT22;6792;57.698;11.946;2022-09-09T14:39:55;21.40;53.60
13440;DHT22;6792;57.698;11.946;2022-09-09T14:42:24;21.40;53.70
13440;DHT22;6792;57.698;11.946;2022-09-09T14:44:54;21.40;53.80
13440;DHT22;6792;57.698;11.946;2022-09-09T14:47:23;21.40;53.80
13440;DHT22;6792;57.698;11.946;2022-09-09T14:49:53;21.40;53.80
13440;DHT22;6792;57.698;11.946;2022-09-09T14:52:22;21.40;53.90
13440;DHT22;6792;57.698;11.946;2022-09-09T14:54:51;21.40;54.00
13440;DHT22;6792;57.698;11.946;2022-09-09T14:57:20;21.40;54.10
13440;DHT22;6792;57.698;11.946;2022-09-09T14:59:49;21.40;54.10
13440;DHT22;6792;57.698;11.946;2022-09-09T15:02:18;21.40;54.20
13440;DHT22;6792;57.698;11.946;2022-09-09T15:04:47;21.40;54.20
13440;DHT22;6792;57.698;11.946;2022-09-09T15:07:17;21.40;54.20
13440;DHT22;6792;57.698;11.946;2022-09-09T15:09:47;21.40;54.30
13440;DHT22;6792;57.698;11.946;2022-09-09T15:12:16;21.50;54.30
13440;DHT22;6792;57.698;11.946;2022-09-09T15:14:46;21.50;54.30
13440;DHT22;6792;57.698;11.946;2022-09-09T15:17:15;21.50;54.30
13440;DHT22;6792;57.698;11.946;2022-09-09T15:19:44;21.50;54.30
13440;DHT22;6792;57.698;11.946;2022-09-09T15:22:13;21.50;54.40
13440;DHT22;6792;57.698;11.946;2022-09-09T15:24:42;21.60;54.40
13440;DHT22;6792;57.698;11.946;2022-09-09T15:27:11;21.50;54.40
13440;DHT22;6792;57.698;11.946;2022-09-09T15:29:42;21.50;54.50
13440;DHT22;6792;57.698;11.946;2022-09-09T15:32:11;21.50;54.50
13440;DHT22;6792;57.698;11.946;2022-09-09T15:34:40;21.50;54.50
13440;DHT22;6792;57.698;11.946;2022-09-09T15:37:11;21.50;54.60
13440;DHT22;6792;57.698;11.946;2022-09-09T15:39:41;21.50;54.60
13440;DHT22;6792;57.698;11.946;2022-09-09T15:42:11;21.50;54.60
13440;DHT22;6792;57.698;11.946;2022-09-09T15:44:40;21.60;54.70
13440;DHT22;6792;57.698;11.946;2022-09-09T15:47:12;21.50;54.60
13440;DHT22;6792;57.698;11.946;2022-09-09T15:49:41;21.60;54.80
13440;DHT22;6792;57.698;11.946;2022-09-09T15:52:11;21.60;54.80
13440;DHT22;6792;57.698;11.946;2022-09-09T15:54:40;21.50;54.70
13440;DHT22;6792;57.698;11.946;2022-09-09T15:57:12;21.50;54.20
13440;DHT22;6792;57.698;11.946;2022-09-09T15:59:42;21.60;54.90
13440;DHT22;6792;57.698;11.946;2022-09-09T16:02:12;21.60;54.90
13440;DHT22;6792;57.698;11.946;2022-09-09T16:04:41;21.50;54.80
13440;DHT22;6792;57.698;11.946;2022-09-09T16:07:10;21.50;54.80
13440;DHT22;6792;57.698;11.946;2022-09-09T16:09:39;21.60;55.00
13440;DHT22;6792;57.698;11.946;2022-09-09T16:12:09;21.50;54.50